Pagrindinis puslapis
METAR-TAF:

METAR-TAF

Oro uostai :

Udinė, Italija

platuma: 45-59N, ilguma: 013-02E, Aukštis: 51 m

Dabartinis oras

Ataskaita buvo paskelbta 43 minutes, ne 10:55 UTC
Vėjas 4 kt iš Rytų/Šiaurės Rytų
Temperatūra 22°C
Drėgmė 29%
Slėgis 1024 hPa
Matomumas 10 km arba daugiau
nėra debesų žemiau 1500 m ir nėra kamuolinių lietaus debesų

METAR: LIPI 211055Z 07004KT CAVOK 22/03 Q1024 RMK SKC VIS MIN 9999 WIND THR06 14003KT WIND THR24 16002KT BLU

Laikas: 13:38 (11:38 UTC)

Prognozė

Ataskaita buvo paskelbta 27 valandos ir 38 minutes, ne 08:00 UTC
Prognozė galioja nuo 20 metu 09 UTC su 20 metu 18 UTC
Vėjas 7 kt iš Rytų
Matomumas 10 km arba daugiau
nėra debesų žemiau 1500 m ir nėra kamuolinių lietaus debesų

TAF: LIPI 200800Z 2009/2018 08007KT CAVOK

Orai ataskaitas ir orų prognozės (METAR, TAF).

turimą stotys yra geltonos ir raudonos taškus žemėlapyje.

Perkelti pele per norėdami pamatyti stoties vardą.

Tada spustelėkite, norėdami matyti oro stebėjimo ir prognozės.

Norėdami pakeisti žemėlapį: spustelėkite ant žalios mygtukų su juodo kryžiaus žemyn,; žalią mygtuką su brūkšneliu, jei norite nutolinti; arba žalių rodyklių gretimoms žemėlapius.


METAR-TAF: